sensor_id;sensor_type;location;lat;lon;timestamp;P1;P2;P0
57049;PMS7003;42935;50.966;16.992;2023-07-31T00:01:38;3;2;2
57049;PMS7003;42935;50.966;16.992;2023-07-31T00:05:00;4;2;2
57049;PMS7003;42935;50.966;16.992;2023-07-31T00:08:20;3;2;2
57049;PMS7003;42935;50.966;16.992;2023-07-31T00:11:41;2;2;1
57049;PMS7003;42935;50.966;16.992;2023-07-31T00:14:59;3;3;2
57049;PMS7003;42935;50.966;16.992;2023-07-31T00:18:23;3;3;2
57049;PMS7003;42935;50.966;16.992;2023-07-31T00:21:44;3;3;2
57049;PMS7003;42935;50.966;16.992;2023-07-31T00:25:02;4;2;1
57049;PMS7003;42935;50.966;16.992;2023-07-31T00:28:27;3;2;1
57049;PMS7003;42935;50.966;16.992;2023-07-31T00:31:50;6;4;3
57049;PMS7003;42935;50.966;16.992;2023-07-31T00:35:41;7;5;4
57049;PMS7003;42935;50.966;16.992;2023-07-31T00:39:04;9;6;4
57049;PMS7003;42935;50.966;16.992;2023-07-31T00:42:25;9;7;6
57049;PMS7003;42935;50.966;16.992;2023-07-31T00:45:49;9;8;7
57049;PMS7003;42935;50.966;16.992;2023-07-31T00:49:10;9;8;7
57049;PMS7003;42935;50.966;16.992;2023-07-31T00:53:02;9;7;6
57049;PMS7003;42935;50.966;16.992;2023-07-31T00:56:23;9;8;7
57049;PMS7003;42935;50.966;16.992;2023-07-31T00:59:46;11;10;8
57049;PMS7003;42935;50.966;16.992;2023-07-31T01:03:39;11;10;8
57049;PMS7003;42935;50.966;16.992;2023-07-31T01:10:41;11;11;8
57049;PMS7003;42935;50.966;16.992;2023-07-31T01:14:12;11;10;7
57049;PMS7003;42935;50.966;16.992;2023-07-31T01:17:41;8;7;6
57049;PMS7003;42935;50.966;16.992;2023-07-31T01:32:01;9;8;6
57049;PMS7003;42935;50.966;16.992;2023-07-31T01:35:18;9;8;6
57049;PMS7003;42935;50.966;16.992;2023-07-31T01:38:39;9;6;6
57049;PMS7003;42935;50.966;16.992;2023-07-31T01:41:59;8;6;5
57049;PMS7003;42935;50.966;16.992;2023-07-31T01:45:15;8;6;5
57049;PMS7003;42935;50.966;16.992;2023-07-31T01:49:05;8;8;6
57049;PMS7003;42935;50.966;16.992;2023-07-31T01:52:23;8;8;6
57049;PMS7003;42935;50.966;16.992;2023-07-31T01:55:43;9;7;6
57049;PMS7003;42935;50.966;16.992;2023-07-31T01:59:03;8;8;5
57049;PMS7003;42935;50.966;16.992;2023-07-31T02:02:56;10;7;6
57049;PMS7003;42935;50.966;16.992;2023-07-31T02:06:20;7;6;4
57049;PMS7003;42935;50.966;16.992;2023-07-31T02:09:39;6;5;5
57049;PMS7003;42935;50.966;16.992;2023-07-31T02:12:59;7;6;5
57049;PMS7003;42935;50.966;16.992;2023-07-31T02:16:20;8;7;5
57049;PMS7003;42935;50.966;16.992;2023-07-31T02:19:39;7;6;4
57049;PMS7003;42935;50.966;16.992;2023-07-31T02:23:03;9;7;5
57049;PMS7003;42935;50.966;16.992;2023-07-31T02:26:22;10;8;6
57049;PMS7003;42935;50.966;16.992;2023-07-31T02:29:48;11;8;6
57049;PMS7003;42935;50.966;16.992;2023-07-31T02:33:11;10;9;6
57049;PMS7003;42935;50.966;16.992;2023-07-31T02:36:58;11;8;7
57049;PMS7003;42935;50.966;16.992;2023-07-31T02:40:22;10;9;7
57049;PMS7003;42935;50.966;16.992;2023-07-31T02:43:44;10;10;8
57049;PMS7003;42935;50.966;16.992;2023-07-31T02:47:03;12;10;8
57049;PMS7003;42935;50.966;16.992;2023-07-31T02:50:23;12;11;9
57049;PMS7003;42935;50.966;16.992;2023-07-31T02:53:45;11;11;9
57049;PMS7003;42935;50.966;16.992;2023-07-31T02:57:05;18;15;12
57049;PMS7003;42935;50.966;16.992;2023-07-31T03:00:24;16;14;11
57049;PMS7003;42935;50.966;16.992;2023-07-31T03:03:42;15;15;11
57049;PMS7003;42935;50.966;16.992;2023-07-31T03:07:08;17;15;11
57049;PMS7003;42935;50.966;16.992;2023-07-31T03:10:30;17;15;11
57049;PMS7003;42935;50.966;16.992;2023-07-31T03:13:51;20;18;15
57049;PMS7003;42935;50.966;16.992;2023-07-31T03:17:18;17;17;13
57049;PMS7003;42935;50.966;16.992;2023-07-31T03:20:43;19;17;13
57049;PMS7003;42935;50.966;16.992;2023-07-31T03:24:06;17;15;11
57049;PMS7003;42935;50.966;16.992;2023-07-31T03:27:26;12;11;10
57049;PMS7003;42935;50.966;16.992;2023-07-31T03:30:48;12;12;10
57049;PMS7003;42935;50.966;16.992;2023-07-31T03:34:38;9;8;7
57049;PMS7003;42935;50.966;16.992;2023-07-31T03:38:03;12;10;8
57049;PMS7003;42935;50.966;16.992;2023-07-31T03:41:24;9;7;5
57049;PMS7003;42935;50.966;16.992;2023-07-31T03:44:45;9;9;6
57049;PMS7003;42935;50.966;16.992;2023-07-31T03:48:05;8;8;6
57049;PMS7003;42935;50.966;16.992;2023-07-31T03:51:57;7;5;5
57049;PMS7003;42935;50.966;16.992;2023-07-31T03:55:21;8;5;4
57049;PMS7003;42935;50.966;16.992;2023-07-31T03:58:41;5;5;4
57049;PMS7003;42935;50.966;16.992;2023-07-31T04:02:28;5;4;3
57049;PMS7003;42935;50.966;16.992;2023-07-31T04:05:47;5;3;2
57049;PMS7003;42935;50.966;16.992;2023-07-31T04:09:05;9;5;4
57049;PMS7003;42935;50.966;16.992;2023-07-31T04:12:26;6;4;4
57049;PMS7003;42935;50.966;16.992;2023-07-31T04:15:49;4;3;3
57049;PMS7003;42935;50.966;16.992;2023-07-31T04:19:36;5;5;3
57049;PMS7003;42935;50.966;16.992;2023-07-31T04:22:56;4;4;3
57049;PMS7003;42935;50.966;16.992;2023-07-31T04:26:14;4;3;2
57049;PMS7003;42935;50.966;16.992;2023-07-31T04:29:34;4;4;3
57049;PMS7003;42935;50.966;16.992;2023-07-31T04:32:52;5;2;2
57049;PMS7003;42935;50.966;16.992;2023-07-31T04:36:12;4;4;3
57049;PMS7003;42935;50.966;16.992;2023-07-31T04:39:36;6;5;4
57049;PMS7003;42935;50.966;16.992;2023-07-31T04:42:57;3;3;3
57049;PMS7003;42935;50.966;16.992;2023-07-31T04:46:17;3;3;2
57049;PMS7003;42935;50.966;16.992;2023-07-31T04:49:37;5;3;3
57049;PMS7003;42935;50.966;16.992;2023-07-31T04:52:57;5;3;3
57049;PMS7003;42935;50.966;16.992;2023-07-31T04:56:16;2;2;2
57049;PMS7003;42935;50.966;16.992;2023-07-31T04:59:36;3;3;2
57049;PMS7003;42935;50.966;16.992;2023-07-31T05:02:56;3;3;2
57049;PMS7003;42935;50.966;16.992;2023-07-31T05:06:16;5;4;3
57049;PMS7003;42935;50.966;16.992;2023-07-31T05:09:38;3;3;3
57049;PMS7003;42935;50.966;16.992;2023-07-31T05:13:05;4;3;3
57049;PMS7003;42935;50.966;16.992;2023-07-31T05:16:25;4;3;2
57049;PMS7003;42935;50.966;16.992;2023-07-31T05:19:45;6;4;4
57049;PMS7003;42935;50.966;16.992;2023-07-31T05:23:04;5;3;2
57049;PMS7003;42935;50.966;16.992;2023-07-31T05:26:24;5;4;3
57049;PMS7003;42935;50.966;16.992;2023-07-31T05:29:45;6;4;3
57049;PMS7003;42935;50.966;16.992;2023-07-31T05:33:06;5;3;3
57049;PMS7003;42935;50.966;16.992;2023-07-31T05:36:26;8;4;3
57049;PMS7003;42935;50.966;16.992;2023-07-31T05:39:45;5;3;3
57049;PMS7003;42935;50.966;16.992;2023-07-31T05:43:34;5;3;3
57049;PMS7003;42935;50.966;16.992;2023-07-31T05:46:54;3;3;2
57049;PMS7003;42935;50.966;16.992;2023-07-31T05:50:10;4;3;2
57049;PMS7003;42935;50.966;16.992;2023-07-31T05:53:29;3;3;3
57049;PMS7003;42935;50.966;16.992;2023-07-31T05:56:46;4;3;2
57049;PMS7003;42935;50.966;16.992;2023-07-31T06:00:06;3;3;2
57049;PMS7003;42935;50.966;16.992;2023-07-31T06:03:27;3;2;2
57049;PMS7003;42935;50.966;16.992;2023-07-31T06:06:46;5;3;3
57049;PMS7003;42935;50.966;16.992;2023-07-31T06:10:07;3;3;3
57049;PMS7003;42935;50.966;16.992;2023-07-31T06:13:26;3;3;2
57049;PMS7003;42935;50.966;16.992;2023-07-31T06:16:46;4;3;2
57049;PMS7003;42935;50.966;16.992;2023-07-31T06:20:07;5;3;2
57049;PMS7003;42935;50.966;16.992;2023-07-31T06:23:27;3;2;2
57049;PMS7003;42935;50.966;16.992;2023-07-31T06:26:46;5;3;2
57049;PMS7003;42935;50.966;16.992;2023-07-31T06:30:07;5;2;2
57049;PMS7003;42935;50.966;16.992;2023-07-31T06:33:32;4;3;2
57049;PMS7003;42935;50.966;16.992;2023-07-31T06:36:56;5;3;2
57049;PMS7003;42935;50.966;16.992;2023-07-31T06:40:14;3;2;2
57049;PMS7003;42935;50.966;16.992;2023-07-31T06:43:37;5;3;2
57049;PMS7003;42935;50.966;16.992;2023-07-31T06:46:56;5;3;3
57049;PMS7003;42935;50.966;16.992;2023-07-31T06:50:17;3;2;2
57049;PMS7003;42935;50.966;16.992;2023-07-31T06:53:37;6;3;3
57049;PMS7003;42935;50.966;16.992;2023-07-31T06:56:57;3;3;3
57049;PMS7003;42935;50.966;16.992;2023-07-31T07:00:15;4;3;2
57049;PMS7003;42935;50.966;16.992;2023-07-31T07:03:36;4;3;2
57049;PMS7003;42935;50.966;16.992;2023-07-31T07:06:54;3;3;3
57049;PMS7003;42935;50.966;16.992;2023-07-31T07:10:44;3;3;2
57049;PMS7003;42935;50.966;16.992;2023-07-31T07:14:03;3;3;2
57049;PMS7003;42935;50.966;16.992;2023-07-31T07:17:21;3;2;2
57049;PMS7003;42935;50.966;16.992;2023-07-31T07:20:37;3;3;3
57049;PMS7003;42935;50.966;16.992;2023-07-31T07:23:56;6;3;3
57049;PMS7003;42935;50.966;16.992;2023-07-31T07:27:47;3;3;2
57049;PMS7003;42935;50.966;16.992;2023-07-31T07:31:37;2;2;2
57049;PMS7003;42935;50.966;16.992;2023-07-31T07:35:00;4;3;2
57049;PMS7003;42935;50.966;16.992;2023-07-31T07:38:18;3;3;2
57049;PMS7003;42935;50.966;16.992;2023-07-31T07:41:39;6;4;3
57049;PMS7003;42935;50.966;16.992;2023-07-31T07:44:59;4;3;2
57049;PMS7003;42935;50.966;16.992;2023-07-31T07:48:19;3;2;2
57049;PMS7003;42935;50.966;16.992;2023-07-31T07:51:39;3;3;2
57049;PMS7003;42935;50.966;16.992;2023-07-31T07:54:59;4;2;2
57049;PMS7003;42935;50.966;16.992;2023-07-31T07:58:15;3;3;2
57049;PMS7003;42935;50.966;16.992;2023-07-31T08:01:34;3;3;2
57049;PMS7003;42935;50.966;16.992;2023-07-31T08:04:53;4;3;2
57049;PMS7003;42935;50.966;16.992;2023-07-31T08:08:15;4;3;2
57049;PMS7003;42935;50.966;16.992;2023-07-31T08:11:40;3;3;3
57049;PMS7003;42935;50.966;16.992;2023-07-31T08:15:00;3;3;2
57049;PMS7003;42935;50.966;16.992;2023-07-31T08:18:16;4;3;3
57049;PMS7003;42935;50.966;16.992;2023-07-31T08:21:34;4;2;2
57049;PMS7003;42935;50.966;16.992;2023-07-31T08:24:54;2;2;2
57049;PMS7003;42935;50.966;16.992;2023-07-31T08:28:14;3;2;2
57049;PMS7003;42935;50.966;16.992;2023-07-31T08:31:34;4;2;2
57049;PMS7003;42935;50.966;16.992;2023-07-31T08:34:55;3;3;2
57049;PMS7003;42935;50.966;16.992;2023-07-31T08:38:14;3;3;2
57049;PMS7003;42935;50.966;16.992;2023-07-31T08:41:38;5;3;2
57049;PMS7003;42935;50.966;16.992;2023-07-31T08:44:58;4;4;3
57049;PMS7003;42935;50.966;16.992;2023-07-31T08:48:19;4;3;3
57049;PMS7003;42935;50.966;16.992;2023-07-31T08:51:44;4;4;3
57049;PMS7003;42935;50.966;16.992;2023-07-31T08:55:07;4;3;3
57049;PMS7003;42935;50.966;16.992;2023-07-31T08:58:27;4;3;2
57049;PMS7003;42935;50.966;16.992;2023-07-31T09:01:52;5;4;3
57049;PMS7003;42935;50.966;16.992;2023-07-31T09:05:13;6;4;3
57049;PMS7003;42935;50.966;16.992;2023-07-31T09:08:35;5;5;4
57049;PMS7003;42935;50.966;16.992;2023-07-31T09:12:01;3;3;2
57049;PMS7003;42935;50.966;16.992;2023-07-31T09:15:21;2;2;2
57049;PMS7003;42935;50.966;16.992;2023-07-31T09:22:10;5;4;3
57049;PMS7003;42935;50.966;16.992;2023-07-31T09:25:28;4;3;3
57049;PMS7003;42935;50.966;16.992;2023-07-31T09:28:48;3;3;2
57049;PMS7003;42935;50.966;16.992;2023-07-31T09:32:06;4;3;2
57049;PMS7003;42935;50.966;16.992;2023-07-31T09:35:39;6;3;3
57049;PMS7003;42935;50.966;16.992;2023-07-31T09:39:05;5;4;3
57049;PMS7003;42935;50.966;16.992;2023-07-31T09:42:29;3;3;2
57049;PMS7003;42935;50.966;16.992;2023-07-31T09:45:54;6;4;4
57049;PMS7003;42935;50.966;16.992;2023-07-31T09:49:16;2;2;2
57049;PMS7003;42935;50.966;16.992;2023-07-31T09:52:38;3;3;2
57049;PMS7003;42935;50.966;16.992;2023-07-31T09:56:00;3;3;2
57049;PMS7003;42935;50.966;16.992;2023-07-31T09:59:19;4;3;3
57049;PMS7003;42935;50.966;16.992;2023-07-31T10:02:41;4;3;2
57049;PMS7003;42935;50.966;16.992;2023-07-31T10:06:05;2;2;2
57049;PMS7003;42935;50.966;16.992;2023-07-31T10:09:33;4;3;3
57049;PMS7003;42935;50.966;16.992;2023-07-31T10:12:52;2;2;2
57049;PMS7003;42935;50.966;16.992;2023-07-31T10:16:11;4;3;3
57049;PMS7003;42935;50.966;16.992;2023-07-31T10:19:35;5;3;3
57049;PMS7003;42935;50.966;16.992;2023-07-31T10:22:54;4;3;3
57049;PMS7003;42935;50.966;16.992;2023-07-31T10:26:16;4;2;2
57049;PMS7003;42935;50.966;16.992;2023-07-31T10:29:38;4;3;2
57049;PMS7003;42935;50.966;16.992;2023-07-31T10:33:00;4;4;3
57049;PMS7003;42935;50.966;16.992;2023-07-31T10:36:20;6;4;4
57049;PMS7003;42935;50.966;16.992;2023-07-31T10:39:39;5;4;3
57049;PMS7003;42935;50.966;16.992;2023-07-31T10:42:58;4;4;4
57049;PMS7003;42935;50.966;16.992;2023-07-31T10:46:17;5;4;3
57049;PMS7003;42935;50.966;16.992;2023-07-31T10:49:34;4;4;3
57049;PMS7003;42935;50.966;16.992;2023-07-31T10:52:54;7;5;4
57049;PMS7003;42935;50.966;16.992;2023-07-31T10:56:20;4;4;3
57049;PMS7003;42935;50.966;16.992;2023-07-31T10:59:42;8;5;4
57049;PMS7003;42935;50.966;16.992;2023-07-31T11:03:02;5;4;4
57049;PMS7003;42935;50.966;16.992;2023-07-31T11:06:29;5;4;4
57049;PMS7003;42935;50.966;16.992;2023-07-31T11:09:51;3;3;2
57049;PMS7003;42935;50.966;16.992;2023-07-31T11:13:11;5;5;4
57049;PMS7003;42935;50.966;16.992;2023-07-31T11:16:30;4;4;4
57049;PMS7003;42935;50.966;16.992;2023-07-31T11:19:50;5;4;4
57049;PMS7003;42935;50.966;16.992;2023-07-31T11:23:10;4;3;2
57049;PMS7003;42935;50.966;16.992;2023-07-31T11:26:29;6;5;4
57049;PMS7003;42935;50.966;16.992;2023-07-31T11:29:50;4;4;3
57049;PMS7003;42935;50.966;16.992;2023-07-31T11:33:12;4;3;3
57049;PMS7003;42935;50.966;16.992;2023-07-31T11:36:31;5;5;4
57049;PMS7003;42935;50.966;16.992;2023-07-31T11:40:00;5;4;3
57049;PMS7003;42935;50.966;16.992;2023-07-31T11:43:20;7;4;3
57049;PMS7003;42935;50.966;16.992;2023-07-31T11:47:08;4;3;3
57049;PMS7003;42935;50.966;16.992;2023-07-31T11:50:27;4;3;3
57049;PMS7003;42935;50.966;16.992;2023-07-31T11:54:16;5;4;4
57049;PMS7003;42935;50.966;16.992;2023-07-31T11:57:35;4;4;4
57049;PMS7003;42935;50.966;16.992;2023-07-31T12:00:57;6;5;4
57049;PMS7003;42935;50.966;16.992;2023-07-31T12:04:18;4;3;3
57049;PMS7003;42935;50.966;16.992;2023-07-31T12:07:47;5;5;4
57049;PMS7003;42935;50.966;16.992;2023-07-31T12:11:07;3;3;3
57049;PMS7003;42935;50.966;16.992;2023-07-31T12:14:29;4;3;3
57049;PMS7003;42935;50.966;16.992;2023-07-31T12:17:48;5;5;4
57049;PMS7003;42935;50.966;16.992;2023-07-31T12:21:07;4;4;3
57049;PMS7003;42935;50.966;16.992;2023-07-31T12:24:33;6;4;4
57049;PMS7003;42935;50.966;16.992;2023-07-31T12:28:24;5;4;3
57049;PMS7003;42935;50.966;16.992;2023-07-31T12:31:43;8;6;4
57049;PMS7003;42935;50.966;16.992;2023-07-31T12:35:06;5;5;4
57049;PMS7003;42935;50.966;16.992;2023-07-31T12:38:25;5;4;4
57049;PMS7003;42935;50.966;16.992;2023-07-31T12:41:44;8;5;4
57049;PMS7003;42935;50.966;16.992;2023-07-31T12:45:34;5;4;4
57049;PMS7003;42935;50.966;16.992;2023-07-31T12:48:54;5;5;4
57049;PMS7003;42935;50.966;16.992;2023-07-31T12:52:14;5;5;4
57049;PMS7003;42935;50.966;16.992;2023-07-31T12:55:34;6;5;4
57049;PMS7003;42935;50.966;16.992;2023-07-31T12:58:55;6;4;3
57049;PMS7003;42935;50.966;16.992;2023-07-31T13:02:15;6;4;3
57049;PMS7003;42935;50.966;16.992;2023-07-31T13:05:35;7;5;4
57049;PMS7003;42935;50.966;16.992;2023-07-31T13:08:55;4;4;3
57049;PMS7003;42935;50.966;16.992;2023-07-31T13:12:20;5;4;3
57049;PMS7003;42935;50.966;16.992;2023-07-31T13:15:43;4;4;3
57049;PMS7003;42935;50.966;16.992;2023-07-31T13:19:04;4;4;3
57049;PMS7003;42935;50.966;16.992;2023-07-31T13:22:23;5;4;3
57049;PMS7003;42935;50.966;16.992;2023-07-31T13:25:42;5;5;4
57049;PMS7003;42935;50.966;16.992;2023-07-31T13:29:00;3;3;2
57049;PMS7003;42935;50.966;16.992;2023-07-31T13:32:22;4;4;3
57049;PMS7003;42935;50.966;16.992;2023-07-31T13:35:42;4;4;3
57049;PMS7003;42935;50.966;16.992;2023-07-31T13:39:02;4;4;3
57049;PMS7003;42935;50.966;16.992;2023-07-31T13:42:22;5;3;3
57049;PMS7003;42935;50.966;16.992;2023-07-31T13:45:42;4;4;3
57049;PMS7003;42935;50.966;16.992;2023-07-31T13:49:02;4;4;3
57049;PMS7003;42935;50.966;16.992;2023-07-31T13:52:24;5;5;4
57049;PMS7003;42935;50.966;16.992;2023-07-31T13:55:44;3;3;3
57049;PMS7003;42935;50.966;16.992;2023-07-31T13:59:08;5;4;4
57049;PMS7003;42935;50.966;16.992;2023-07-31T14:02:34;5;4;3
57049;PMS7003;42935;50.966;16.992;2023-07-31T14:05:53;3;3;3
57049;PMS7003;42935;50.966;16.992;2023-07-31T14:09:14;5;4;4
57049;PMS7003;42935;50.966;16.992;2023-07-31T14:12:35;3;3;3
57049;PMS7003;42935;50.966;16.992;2023-07-31T14:15:55;3;2;2
57049;PMS7003;42935;50.966;16.992;2023-07-31T14:19:15;5;4;3
57049;PMS7003;42935;50.966;16.992;2023-07-31T14:22:35;4;3;3
57049;PMS7003;42935;50.966;16.992;2023-07-31T14:25:58;4;3;2
57049;PMS7003;42935;50.966;16.992;2023-07-31T14:29:14;4;4;3
57049;PMS7003;42935;50.966;16.992;2023-07-31T14:32:34;6;5;4
57049;PMS7003;42935;50.966;16.992;2023-07-31T14:36:25;3;3;2
57049;PMS7003;42935;50.966;16.992;2023-07-31T14:39:45;5;2;2
57049;PMS7003;42935;50.966;16.992;2023-07-31T14:43:05;3;3;3
57049;PMS7003;42935;50.966;16.992;2023-07-31T14:46:24;4;3;3
57049;PMS7003;42935;50.966;16.992;2023-07-31T14:49:44;4;3;3
57049;PMS7003;42935;50.966;16.992;2023-07-31T14:53:02;4;4;3
57049;PMS7003;42935;50.966;16.992;2023-07-31T14:56:22;3;3;2
57049;PMS7003;42935;50.966;16.992;2023-07-31T14:59:47;3;3;3
57049;PMS7003;42935;50.966;16.992;2023-07-31T15:03:35;3;3;2
57049;PMS7003;42935;50.966;16.992;2023-07-31T15:07:00;2;2;1
57049;PMS7003;42935;50.966;16.992;2023-07-31T15:10:22;3;2;2
57049;PMS7003;42935;50.966;16.992;2023-07-31T15:13:41;3;2;2
57049;PMS7003;42935;50.966;16.992;2023-07-31T15:17:05;3;3;2
57049;PMS7003;42935;50.966;16.992;2023-07-31T15:20:25;6;3;2
57049;PMS7003;42935;50.966;16.992;2023-07-31T15:23:45;3;2;2
57049;PMS7003;42935;50.966;16.992;2023-07-31T15:27:02;5;2;2
57049;PMS7003;42935;50.966;16.992;2023-07-31T15:30:22;3;2;2
57049;PMS7003;42935;50.966;16.992;2023-07-31T15:33:45;2;2;1
57049;PMS7003;42935;50.966;16.992;2023-07-31T15:37:05;3;2;2
57049;PMS7003;42935;50.966;16.992;2023-07-31T15:40:25;3;3;2
57049;PMS7003;42935;50.966;16.992;2023-07-31T15:43:45;4;3;2
57049;PMS7003;42935;50.966;16.992;2023-07-31T15:47:05;3;2;2
57049;PMS7003;42935;50.966;16.992;2023-07-31T15:50:25;3;2;2
57049;PMS7003;42935;50.966;16.992;2023-07-31T15:53:47;2;2;1
57049;PMS7003;42935;50.966;16.992;2023-07-31T15:57:07;3;1;1
57049;PMS7003;42935;50.966;16.992;2023-07-31T16:00:26;1;1;1
57049;PMS7003;42935;50.966;16.992;2023-07-31T16:03:52;1;1;1
57049;PMS7003;42935;50.966;16.992;2023-07-31T16:07:11;2;1;1
57049;PMS7003;42935;50.966;16.992;2023-07-31T16:10:31;2;2;1
57049;PMS7003;42935;50.966;16.992;2023-07-31T16:13:50;2;2;2
57049;PMS7003;42935;50.966;16.992;2023-07-31T16:17:10;1;1;1
57049;PMS7003;42935;50.966;16.992;2023-07-31T16:20:28;2;1;1
57049;PMS7003;42935;50.966;16.992;2023-07-31T16:23:49;3;2;2
57049;PMS7003;42935;50.966;16.992;2023-07-31T16:27:15;3;2;2
57049;PMS7003;42935;50.966;16.992;2023-07-31T16:30:41;3;3;2
57049;PMS7003;42935;50.966;16.992;2023-07-31T16:34:30;2;2;2
57049;PMS7003;42935;50.966;16.992;2023-07-31T16:37:50;3;2;2
57049;PMS7003;42935;50.966;16.992;2023-07-31T16:41:14;2;2;2
57049;PMS7003;42935;50.966;16.992;2023-07-31T16:44:34;3;2;2
57049;PMS7003;42935;50.966;16.992;2023-07-31T16:47:55;2;2;1
57049;PMS7003;42935;50.966;16.992;2023-07-31T16:51:14;4;3;2
57049;PMS7003;42935;50.966;16.992;2023-07-31T16:54:33;3;2;2
57049;PMS7003;42935;50.966;16.992;2023-07-31T16:58:24;3;2;2
57049;PMS7003;42935;50.966;16.992;2023-07-31T17:01:43;2;2;2
57049;PMS7003;42935;50.966;16.992;2023-07-31T17:05:00;4;2;2
57049;PMS7003;42935;50.966;16.992;2023-07-31T17:08:16;3;3;2
57049;PMS7003;42935;50.966;16.992;2023-07-31T17:11:38;3;3;2
57049;PMS7003;42935;50.966;16.992;2023-07-31T17:14:57;3;2;2
57049;PMS7003;42935;50.966;16.992;2023-07-31T17:18:16;3;2;1
57049;PMS7003;42935;50.966;16.992;2023-07-31T17:22:06;2;2;2
57049;PMS7003;42935;50.966;16.992;2023-07-31T17:25:24;3;3;2
57049;PMS7003;42935;50.966;16.992;2023-07-31T17:28:46;4;3;2
57049;PMS7003;42935;50.966;16.992;2023-07-31T17:32:35;4;3;3
57049;PMS7003;42935;50.966;16.992;2023-07-31T17:35:53;3;2;2
57049;PMS7003;42935;50.966;16.992;2023-07-31T17:39:13;5;3;3
57049;PMS7003;42935;50.966;16.992;2023-07-31T17:42:32;4;3;3
57049;PMS7003;42935;50.966;16.992;2023-07-31T17:45:51;5;4;3
57049;PMS7003;42935;50.966;16.992;2023-07-31T17:49:46;3;3;2
57049;PMS7003;42935;50.966;16.992;2023-07-31T17:53:34;5;3;3
57049;PMS7003;42935;50.966;16.992;2023-07-31T17:56:52;4;4;3
57049;PMS7003;42935;50.966;16.992;2023-07-31T18:00:09;4;3;2
57049;PMS7003;42935;50.966;16.992;2023-07-31T18:03:27;5;4;3
57049;PMS7003;42935;50.966;16.992;2023-07-31T18:06:50;4;3;3
57049;PMS7003;42935;50.966;16.992;2023-07-31T18:14:09;4;4;3
57049;PMS7003;42935;50.966;16.992;2023-07-31T18:17:57;3;3;3
57049;PMS7003;42935;50.966;16.992;2023-07-31T18:21:15;6;4;3
57049;PMS7003;42935;50.966;16.992;2023-07-31T18:25:05;4;4;3
57049;PMS7003;42935;50.966;16.992;2023-07-31T18:28:25;6;3;3
57049;PMS7003;42935;50.966;16.992;2023-07-31T18:31:45;4;3;3
57049;PMS7003;42935;50.966;16.992;2023-07-31T18:40:00;5;3;2
57049;PMS7003;42935;50.966;16.992;2023-07-31T18:43:20;5;4;3
57049;PMS7003;42935;50.966;16.992;2023-07-31T18:46:42;4;4;4
57049;PMS7003;42935;50.966;16.992;2023-07-31T18:50:02;5;4;3
57049;PMS7003;42935;50.966;16.992;2023-07-31T18:53:55;5;4;3
57049;PMS7003;42935;50.966;16.992;2023-07-31T18:57:44;4;3;3
57049;PMS7003;42935;50.966;16.992;2023-07-31T19:01:34;4;3;3
57049;PMS7003;42935;50.966;16.992;2023-07-31T19:04:52;4;3;3
57049;PMS7003;42935;50.966;16.992;2023-07-31T19:08:11;5;4;3
57049;PMS7003;42935;50.966;16.992;2023-07-31T19:11:58;4;3;2
57049;PMS7003;42935;50.966;16.992;2023-07-31T19:15:16;4;3;3
57049;PMS7003;42935;50.966;16.992;2023-07-31T19:18:37;4;4;3
57049;PMS7003;42935;50.966;16.992;2023-07-31T19:22:25;3;3;2
57049;PMS7003;42935;50.966;16.992;2023-07-31T19:25:44;5;4;3
57049;PMS7003;42935;50.966;16.992;2023-07-31T19:29:04;5;4;3
57049;PMS7003;42935;50.966;16.992;2023-07-31T19:32:22;4;3;3
57049;PMS7003;42935;50.966;16.992;2023-07-31T19:35:42;4;3;3
57049;PMS7003;42935;50.966;16.992;2023-07-31T19:39:00;4;4;3
57049;PMS7003;42935;50.966;16.992;2023-07-31T19:42:20;5;5;4
57049;PMS7003;42935;50.966;16.992;2023-07-31T19:45:38;5;4;3
57049;PMS7003;42935;50.966;16.992;2023-07-31T19:48:58;5;5;4
57049;PMS7003;42935;50.966;16.992;2023-07-31T19:52:47;7;5;3
57049;PMS7003;42935;50.966;16.992;2023-07-31T19:56:06;3;3;2
57049;PMS7003;42935;50.966;16.992;2023-07-31T19:59:56;7;4;3
57049;PMS7003;42935;50.966;16.992;2023-07-31T20:03:16;4;3;2
57049;PMS7003;42935;50.966;16.992;2023-07-31T20:06:34;5;3;3
57049;PMS7003;42935;50.966;16.992;2023-07-31T20:09:52;7;5;4
57049;PMS7003;42935;50.966;16.992;2023-07-31T20:13:19;6;5;3
57049;PMS7003;42935;50.966;16.992;2023-07-31T20:16:34;5;5;4
57049;PMS7003;42935;50.966;16.992;2023-07-31T20:19:59;5;4;4
57049;PMS7003;42935;50.966;16.992;2023-07-31T20:23:21;4;4;3
57049;PMS7003;42935;50.966;16.992;2023-07-31T20:26:45;5;4;4
57049;PMS7003;42935;50.966;16.992;2023-07-31T20:30:05;5;5;4
57049;PMS7003;42935;50.966;16.992;2023-07-31T20:33:26;5;4;3
57049;PMS7003;42935;50.966;16.992;2023-07-31T20:36:46;5;4;3
57049;PMS7003;42935;50.966;16.992;2023-07-31T20:40:06;7;4;3
57049;PMS7003;42935;50.966;16.992;2023-07-31T20:43:27;6;4;3
57049;PMS7003;42935;50.966;16.992;2023-07-31T20:46:47;5;5;4
57049;PMS7003;42935;50.966;16.992;2023-07-31T20:50:38;6;5;4
57049;PMS7003;42935;50.966;16.992;2023-07-31T20:54:00;4;4;3
57049;PMS7003;42935;50.966;16.992;2023-07-31T20:57:19;6;5;4
57049;PMS7003;42935;50.966;16.992;2023-07-31T21:00:41;5;4;3
57049;PMS7003;42935;50.966;16.992;2023-07-31T21:04:06;7;5;4
57049;PMS7003;42935;50.966;16.992;2023-07-31T21:07:29;6;5;4
57049;PMS7003;42935;50.966;16.992;2023-07-31T21:10:48;8;5;4
57049;PMS7003;42935;50.966;16.992;2023-07-31T21:14:08;6;5;4
57049;PMS7003;42935;50.966;16.992;2023-07-31T21:17:30;5;5;4
57049;PMS7003;42935;50.966;16.992;2023-07-31T21:20:50;6;5;4
57049;PMS7003;42935;50.966;16.992;2023-07-31T21:24:10;5;5;4
57049;PMS7003;42935;50.966;16.992;2023-07-31T21:27:30;7;5;4
57049;PMS7003;42935;50.966;16.992;2023-07-31T21:30:46;6;4;3
57049;PMS7003;42935;50.966;16.992;2023-07-31T21:34:08;8;5;4
57049;PMS7003;42935;50.966;16.992;2023-07-31T21:37:28;5;4;3
57049;PMS7003;42935;50.966;16.992;2023-07-31T21:40:54;5;4;4
57049;PMS7003;42935;50.966;16.992;2023-07-31T21:44:14;7;4;4
57049;PMS7003;42935;50.966;16.992;2023-07-31T21:47:34;6;5;4
57049;PMS7003;42935;50.966;16.992;2023-07-31T21:50:52;5;4;3
57049;PMS7003;42935;50.966;16.992;2023-07-31T21:54:11;3;3;2
57049;PMS7003;42935;50.966;16.992;2023-07-31T21:57:31;7;5;4
57049;PMS7003;42935;50.966;16.992;2023-07-31T22:00:51;5;4;3
57049;PMS7003;42935;50.966;16.992;2023-07-31T22:04:11;4;3;3
57049;PMS7003;42935;50.966;16.992;2023-07-31T22:07:30;6;5;3
57049;PMS7003;42935;50.966;16.992;2023-07-31T22:10:52;5;5;3
57049;PMS7003;42935;50.966;16.992;2023-07-31T22:14:14;4;4;3
57049;PMS7003;42935;50.966;16.992;2023-07-31T22:17:34;5;3;3
57049;PMS7003;42935;50.966;16.992;2023-07-31T22:20:53;6;5;4
57049;PMS7003;42935;50.966;16.992;2023-07-31T22:24:11;6;5;4
57049;PMS7003;42935;50.966;16.992;2023-07-31T22:27:32;7;5;4
57049;PMS7003;42935;50.966;16.992;2023-07-31T22:30:50;5;4;3
57049;PMS7003;42935;50.966;16.992;2023-07-31T22:34:10;4;3;3
57049;PMS7003;42935;50.966;16.992;2023-07-31T22:37:26;5;4;3
57049;PMS7003;42935;50.966;16.992;2023-07-31T22:40:45;4;4;4
57049;PMS7003;42935;50.966;16.992;2023-07-31T22:44:05;4;4;3
57049;PMS7003;42935;50.966;16.992;2023-07-31T22:47:25;5;3;3
57049;PMS7003;42935;50.966;16.992;2023-07-31T22:50:43;5;4;3
57049;PMS7003;42935;50.966;16.992;2023-07-31T22:54:03;6;3;3